sensor_id;sensor_type;location;lat;lon;timestamp;pressure;altitude;pressure_sealevel;temperature;humidity
45369;BME280;51342;55.250;37.668;2023-12-14T00:01:02;100267.28;;;-11.61;67.54
45369;BME280;51342;55.250;37.668;2023-12-14T00:03:34;100266.13;;;-11.63;67.67
45369;BME280;51342;55.250;37.668;2023-12-14T00:06:06;100271.38;;;-11.61;67.63
45369;BME280;51342;55.250;37.668;2023-12-14T00:08:37;100271.38;;;-11.61;67.55
45369;BME280;51342;55.250;37.668;2023-12-14T00:11:10;100268.41;;;-11.59;67.47
45369;BME280;51342;55.250;37.668;2023-12-14T00:13:42;100270.47;;;-11.56;67.63
45369;BME280;51342;55.250;37.668;2023-12-14T00:16:13;100263.88;;;-11.61;67.52
45369;BME280;51342;55.250;37.668;2023-12-14T00:18:45;100266.63;;;-11.54;67.64
45369;BME280;51342;55.250;37.668;2023-12-14T00:21:16;100268.66;;;-11.52;67.56
45369;BME280;51342;55.250;37.668;2023-12-14T00:23:48;100262.09;;;-11.57;67.55
45369;BME280;51342;55.250;37.668;2023-12-14T00:26:20;100277.28;;;-11.55;67.68
45369;BME280;51342;55.250;37.668;2023-12-14T00:28:51;100274.09;;;-11.54;67.59
45369;BME280;51342;55.250;37.668;2023-12-14T00:31:23;100266.84;;;-11.53;67.72
45369;BME280;51342;55.250;37.668;2023-12-14T00:33:54;100270.00;;;-11.54;67.65
45369;BME280;51342;55.250;37.668;2023-12-14T00:36:25;100269.78;;;-11.61;67.63
45369;BME280;51342;55.250;37.668;2023-12-14T00:38:57;100272.72;;;-11.58;67.74
45369;BME280;51342;55.250;37.668;2023-12-14T00:41:31;100268.19;;;-11.60;67.62
45369;BME280;51342;55.250;37.668;2023-12-14T00:44:03;100270.47;;;-11.56;67.60
45369;BME280;51342;55.250;37.668;2023-12-14T00:46:35;100262.28;;;-11.61;67.71
45369;BME280;51342;55.250;37.668;2023-12-14T00:49:06;100274.59;;;-11.51;67.77
45369;BME280;51342;55.250;37.668;2023-12-14T00:51:37;100281.81;;;-11.53;67.65
45369;BME280;51342;55.250;37.668;2023-12-14T00:54:09;100279.31;;;-11.53;67.78
45369;BME280;51342;55.250;37.668;2023-12-14T00:56:40;100271.81;;;-11.53;67.61
45369;BME280;51342;55.250;37.668;2023-12-14T00:59:12;100265.72;;;-11.55;67.77
45369;BME280;51342;55.250;37.668;2023-12-14T01:01:43;100259.34;;;-11.58;67.73
45369;BME280;51342;55.250;37.668;2023-12-14T01:04:15;100266.81;;;-11.58;67.78
45369;BME280;51342;55.250;37.668;2023-12-14T01:06:46;100270.47;;;-11.56;67.85
45369;BME280;51342;55.250;37.668;2023-12-14T01:09:18;100266.63;;;-11.54;67.76
45369;BME280;51342;55.250;37.668;2023-12-14T01:11:49;100268.91;;;-11.50;67.85
45369;BME280;51342;55.250;37.668;2023-12-14T01:14:21;100262.75;;;-11.46;67.65
45369;BME280;51342;55.250;37.668;2023-12-14T01:16:52;100259.59;;;-11.45;67.64
45369;BME280;51342;55.250;37.668;2023-12-14T01:19:24;100262.56;;;-11.42;67.82
45369;BME280;51342;55.250;37.668;2023-12-14T01:21:56;100263.94;;;-11.39;67.81
45369;BME280;51342;55.250;37.668;2023-12-14T01:24:27;100264.84;;;-11.38;67.86
45369;BME280;51342;55.250;37.668;2023-12-14T01:26:59;100276.41;;;-11.39;67.80
45369;BME280;51342;55.250;37.668;2023-12-14T01:29:30;100256.19;;;-11.40;67.92
45369;BME280;51342;55.250;37.668;2023-12-14T01:32:02;100266.84;;;-11.41;67.86
45369;BME280;51342;55.250;37.668;2023-12-14T01:34:33;100264.34;;;-11.41;68.01
45369;BME280;51342;55.250;37.668;2023-12-14T01:37:05;100264.81;;;-11.44;67.84
45369;BME280;51342;55.250;37.668;2023-12-14T01:39:36;100255.75;;;-11.43;67.91
45369;BME280;51342;55.250;37.668;2023-12-14T01:42:07;100258.66;;;-11.46;67.91
45369;BME280;51342;55.250;37.668;2023-12-14T01:44:39;100268.22;;;-11.43;67.83
45369;BME280;51342;55.250;37.668;2023-12-14T01:47:10;100272.09;;;-11.40;67.93
45369;BME280;51342;55.250;37.668;2023-12-14T01:49:42;100273.00;;;-11.39;67.92
45369;BME280;51342;55.250;37.668;2023-12-14T01:52:13;100270.50;;;-11.39;67.94
45369;BME280;51342;55.250;37.668;2023-12-14T01:54:45;100256.19;;;-11.46;67.90
45369;BME280;51342;55.250;37.668;2023-12-14T01:57:16;100265.28;;;-11.35;67.83
45369;BME280;51342;55.250;37.668;2023-12-14T01:59:48;100259.63;;;-11.40;68.02
45369;BME280;51342;55.250;37.668;2023-12-14T02:02:19;100255.53;;;-11.39;68.08
45369;BME280;51342;55.250;37.668;2023-12-14T02:04:51;100257.56;;;-11.37;67.92
45369;BME280;51342;55.250;37.668;2023-12-14T02:07:22;100253.47;;;-11.36;68.09
45369;BME280;51342;55.250;37.668;2023-12-14T02:09:53;100247.78;;;-11.41;67.90
45369;BME280;51342;55.250;37.668;2023-12-14T02:12:25;100253.03;;;-11.39;68.03
45369;BME280;51342;55.250;37.668;2023-12-14T02:14:56;100238.50;;;-11.42;68.02
45369;BME280;51342;55.250;37.668;2023-12-14T02:17:28;100245.31;;;-11.35;68.02
45369;BME280;51342;55.250;37.668;2023-12-14T02:19:59;100247.56;;;-11.37;68.10
45369;BME280;51342;55.250;37.668;2023-12-14T02:22:54;100251.19;;;-11.40;68.02
45369;BME280;51342;55.250;37.668;2023-12-14T02:25:28;100253.94;;;-11.33;68.07
45369;BME280;51342;55.250;37.668;2023-12-14T02:28:00;100255.75;;;-11.32;68.15
45369;BME280;51342;55.250;37.668;2023-12-14T02:30:31;100253.69;;;-11.35;68.12
45369;BME280;51342;55.250;37.668;2023-12-14T02:33:03;100264.38;;;-11.36;68.07
45369;BME280;51342;55.250;37.668;2023-12-14T02:35:34;100275.53;;;-11.34;68.13
45369;BME280;51342;55.250;37.668;2023-12-14T02:38:06;100269.38;;;-11.36;68.23
45369;BME280;51342;55.250;37.668;2023-12-14T02:40:37;100267.56;;;-11.37;68.43
45369;BME280;51342;55.250;37.668;2023-12-14T02:43:08;100252.78;;;-11.41;68.26
45369;BME280;51342;55.250;37.668;2023-12-14T02:45:40;100263.94;;;-11.39;68.22
45369;BME280;51342;55.250;37.668;2023-12-14T02:48:12;100265.06;;;-11.37;68.10
45369;BME280;51342;55.250;37.668;2023-12-14T02:50:43;100268.66;;;-11.40;68.23
45369;BME280;51342;55.250;37.668;2023-12-14T02:53:15;100275.25;;;-11.41;68.17
45369;BME280;51342;55.250;37.668;2023-12-14T02:55:46;100269.13;;;-11.43;68.25
45369;BME280;51342;55.250;37.668;2023-12-14T02:58:18;100264.34;;;-11.41;68.38
45369;BME280;51342;55.250;37.668;2023-12-14T03:00:50;100261.19;;;-11.40;68.29
45369;BME280;51342;55.250;37.668;2023-12-14T03:03:22;100256.66;;;-11.43;68.22
45369;BME280;51342;55.250;37.668;2023-12-14T03:05:54;100262.78;;;-11.41;68.23
45369;BME280;51342;55.250;37.668;2023-12-14T03:08:26;100264.63;;;-11.40;68.19
45369;BME280;51342;55.250;37.668;2023-12-14T03:10:57;100254.16;;;-11.43;68.18
45369;BME280;51342;55.250;37.668;2023-12-14T03:13:29;100266.16;;;-11.40;68.36
45369;BME280;51342;55.250;37.668;2023-12-14T03:16:01;100269.16;;;-11.37;68.25
45369;BME280;51342;55.250;37.668;2023-12-14T03:18:32;100268.25;;;-11.38;68.28
45369;BME280;51342;55.250;37.668;2023-12-14T03:21:04;100269.38;;;-11.36;68.13
45369;BME280;51342;55.250;37.668;2023-12-14T03:23:35;100264.16;;;-11.37;68.30
45369;BME280;51342;55.250;37.668;2023-12-14T03:26:07;100267.13;;;-11.34;68.16
45369;BME280;51342;55.250;37.668;2023-12-14T03:28:38;100269.38;;;-11.36;68.21
45369;BME280;51342;55.250;37.668;2023-12-14T03:31:13;100269.13;;;-11.43;68.11
45369;BME280;51342;55.250;37.668;2023-12-14T03:33:45;100265.94;;;-11.42;68.27
45369;BME280;51342;55.250;37.668;2023-12-14T03:36:16;100266.63;;;-11.43;68.13
45369;BME280;51342;55.250;37.668;2023-12-14T03:38:48;100258.03;;;-11.45;68.32
45369;BME280;51342;55.250;37.668;2023-12-14T03:41:19;100265.75;;;-11.38;68.31
45369;BME280;51342;55.250;37.668;2023-12-14T03:43:51;100260.97;;;-11.42;68.29
45369;BME280;51342;55.250;37.668;2023-12-14T03:46:22;100267.13;;;-11.40;68.14
45369;BME280;51342;55.250;37.668;2023-12-14T03:48:54;100271.84;;;-11.41;68.34
45369;BME280;51342;55.250;37.668;2023-12-14T03:51:25;100275.72;;;-11.38;68.32
45369;BME280;51342;55.250;37.668;2023-12-14T03:53:57;100274.59;;;-11.40;68.07
45369;BME280;51342;55.250;37.668;2023-12-14T03:56:28;100269.84;;;-11.38;68.23
45369;BME280;51342;55.250;37.668;2023-12-14T03:59:00;100270.25;;;-11.41;68.25
45369;BME280;51342;55.250;37.668;2023-12-14T04:01:31;100265.06;;;-11.37;68.34
45369;BME280;51342;55.250;37.668;2023-12-14T04:04:04;100253.69;;;-11.35;68.14
45369;BME280;51342;55.250;37.668;2023-12-14T04:06:36;100264.63;;;-11.34;68.36
45369;BME280;51342;55.250;37.668;2023-12-14T04:09:07;100250.06;;;-11.37;68.27
45369;BME280;51342;55.250;37.668;2023-12-14T04:11:38;100250.53;;;-11.34;68.29
45369;BME280;51342;55.250;37.668;2023-12-14T04:14:10;100252.13;;;-11.40;68.34
45369;BME280;51342;55.250;37.668;2023-12-14T04:16:41;100251.19;;;-11.40;68.56
45369;BME280;51342;55.250;37.668;2023-12-14T04:19:14;100249.38;;;-11.41;68.46
45369;BME280;51342;55.250;37.668;2023-12-14T04:21:45;100258.25;;;-11.38;68.49
45369;BME280;51342;55.250;37.668;2023-12-14T04:24:17;100255.06;;;-11.37;68.54
45369;BME280;51342;55.250;37.668;2023-12-14T04:26:48;100256.88;;;-11.36;68.33
45369;BME280;51342;55.250;37.668;2023-12-14T04:29:20;100253.03;;;-11.39;68.48
45369;BME280;51342;55.250;37.668;2023-12-14T04:31:51;100238.03;;;-11.45;68.41
45369;BME280;51342;55.250;37.668;2023-12-14T04:34:24;100241.88;;;-11.41;68.45
45369;BME280;51342;55.250;37.668;2023-12-14T04:36:56;100246.19;;;-11.40;68.26
45369;BME280;51342;55.250;37.668;2023-12-14T04:39:28;100248.03;;;-11.39;68.49
45369;BME280;51342;55.250;37.668;2023-12-14T04:42:00;100256.88;;;-11.41;68.60
45369;BME280;51342;55.250;37.668;2023-12-14T04:44:31;100251.66;;;-11.43;68.46
45369;BME280;51342;55.250;37.668;2023-12-14T04:47:03;100255.75;;;-11.43;68.50
45369;BME280;51342;55.250;37.668;2023-12-14T04:49:34;100250.97;;;-11.42;68.46
45369;BME280;51342;55.250;37.668;2023-12-14T04:52:06;100252.13;;;-11.40;68.51
45369;BME280;51342;55.250;37.668;2023-12-14T04:54:37;100252.13;;;-11.45;68.47
45369;BME280;51342;55.250;37.668;2023-12-14T04:57:11;100251.88;;;-11.47;68.68
45369;BME280;51342;55.250;37.668;2023-12-14T04:59:43;100247.78;;;-11.46;68.53
45369;BME280;51342;55.250;37.668;2023-12-14T05:02:14;100257.13;;;-11.45;68.57
45369;BME280;51342;55.250;37.668;2023-12-14T05:04:46;100260.25;;;-11.46;68.55
45369;BME280;51342;55.250;37.668;2023-12-14T05:07:17;100263.44;;;-11.48;68.74
45369;BME280;51342;55.250;37.668;2023-12-14T05:09:49;100255.25;;;-11.52;68.66
45369;BME280;51342;55.250;37.668;2023-12-14T05:12:20;100255.53;;;-11.45;68.77
45369;BME280;51342;55.250;37.668;2023-12-14T05:14:52;100266.44;;;-11.39;68.87
45369;BME280;51342;55.250;37.668;2023-12-14T05:17:24;100257.78;;;-11.41;68.54
45369;BME280;51342;55.250;37.668;2023-12-14T05:19:55;100273.66;;;-11.35;68.75
45369;BME280;51342;55.250;37.668;2023-12-14T05:22:27;100268.25;;;-11.38;68.62
45369;BME280;51342;55.250;37.668;2023-12-14T05:24:59;100266.88;;;-11.36;68.65
45369;BME280;51342;55.250;37.668;2023-12-14T05:27:30;100263.47;;;-11.36;68.73
45369;BME280;51342;55.250;37.668;2023-12-14T05:30:02;100265.75;;;-11.38;68.85
45369;BME280;51342;55.250;37.668;2023-12-14T05:32:35;100263.25;;;-11.38;68.75
45369;BME280;51342;55.250;37.668;2023-12-14T05:35:06;100265.03;;;-11.42;68.67
45369;BME280;51342;55.250;37.668;2023-12-14T05:37:39;100262.34;;;-11.38;68.88
45369;BME280;51342;55.250;37.668;2023-12-14T05:40:11;100260.06;;;-11.37;68.84
45369;BME280;51342;55.250;37.668;2023-12-14T05:42:42;100265.53;;;-11.34;68.75
45369;BME280;51342;55.250;37.668;2023-12-14T05:45:14;100262.56;;;-11.31;68.83
45369;BME280;51342;55.250;37.668;2023-12-14T05:47:46;100266.19;;;-11.29;68.86
45369;BME280;51342;55.250;37.668;2023-12-14T05:50:17;100263.25;;;-11.32;68.89
45369;BME280;51342;55.250;37.668;2023-12-14T05:52:49;100273.25;;;-11.32;68.80
45369;BME280;51342;55.250;37.668;2023-12-14T05:55:20;100261.44;;;-11.33;68.92
45369;BME280;51342;55.250;37.668;2023-12-14T05:57:52;100264.38;;;-11.30;68.90
45369;BME280;51342;55.250;37.668;2023-12-14T06:00:26;100263.25;;;-11.27;68.76
45369;BME280;51342;55.250;37.668;2023-12-14T06:02:57;100256.88;;;-11.30;68.87
45369;BME280;51342;55.250;37.668;2023-12-14T06:05:29;100260.97;;;-11.31;68.82
45369;BME280;51342;55.250;37.668;2023-12-14T06:08:00;100261.19;;;-11.29;68.88
45369;BME280;51342;55.250;37.668;2023-12-14T06:10:31;100259.59;;;-11.29;68.80
45369;BME280;51342;55.250;37.668;2023-12-14T06:13:03;100256.88;;;-11.30;68.77
45369;BME280;51342;55.250;37.668;2023-12-14T06:15:34;100267.09;;;-11.29;68.80
45369;BME280;51342;55.250;37.668;2023-12-14T06:18:06;100250.97;;;-11.36;68.68
45369;BME280;51342;55.250;37.668;2023-12-14T06:20:37;100259.38;;;-11.30;68.81
45369;BME280;51342;55.250;37.668;2023-12-14T06:23:09;100265.06;;;-11.31;68.85
45369;BME280;51342;55.250;37.668;2023-12-14T06:25:40;100263.94;;;-11.33;68.81
45369;BME280;51342;55.250;37.668;2023-12-14T06:28:12;100277.56;;;-11.31;68.68
45369;BME280;51342;55.250;37.668;2023-12-14T06:30:43;100280.97;;;-11.25;68.78
45369;BME280;51342;55.250;37.668;2023-12-14T06:33:15;100275.28;;;-11.24;68.44
45369;BME280;51342;55.250;37.668;2023-12-14T06:35:46;100270.53;;;-11.28;68.72
45369;BME280;51342;55.250;37.668;2023-12-14T06:38:17;100264.38;;;-11.30;68.60
45369;BME280;51342;55.250;37.668;2023-12-14T06:40:50;100266.88;;;-11.30;68.73
45369;BME280;51342;55.250;37.668;2023-12-14T06:43:22;100257.34;;;-11.27;68.77
45369;BME280;51342;55.250;37.668;2023-12-14T06:45:53;100260.97;;;-11.25;68.73
45369;BME280;51342;55.250;37.668;2023-12-14T06:48:25;100262.34;;;-11.22;68.66
45369;BME280;51342;55.250;37.668;2023-12-14T06:50:56;100269.38;;;-11.19;68.65
45369;BME280;51342;55.250;37.668;2023-12-14T06:53:28;100257.56;;;-11.26;68.51
45369;BME280;51342;55.250;37.668;2023-12-14T06:56:01;100265.06;;;-11.26;68.70
45369;BME280;51342;55.250;37.668;2023-12-14T06:58:32;100272.34;;;-11.16;68.55
45369;BME280;51342;55.250;37.668;2023-12-14T07:01:04;100286.44;;;-11.11;68.46
45369;BME280;51342;55.250;37.668;2023-12-14T07:03:36;100284.16;;;-11.09;68.68
45369;BME280;51342;55.250;37.668;2023-12-14T07:06:07;100284.59;;;-11.06;68.46
45369;BME280;51342;55.250;37.668;2023-12-14T07:08:44;100286.19;;;-11.07;68.50
45369;BME280;51342;55.250;37.668;2023-12-14T07:11:16;100277.78;;;-11.13;68.33
45369;BME280;51342;55.250;37.668;2023-12-14T07:13:48;100285.75;;;-11.10;68.47
45369;BME280;51342;55.250;37.668;2023-12-14T07:16:20;100285.06;;;-11.09;68.40
45369;BME280;51342;55.250;37.668;2023-12-14T07:18:51;100293.25;;;-11.10;68.41
45369;BME280;51342;55.250;37.668;2023-12-14T07:21:23;100288.69;;;-11.01;68.53
45369;BME280;51342;55.250;37.668;2023-12-14T07:23:54;100296.44;;;-10.94;68.52
45369;BME280;51342;55.250;37.668;2023-12-14T07:26:25;100298.47;;;-10.91;68.32
45369;BME280;51342;55.250;37.668;2023-12-14T07:28:57;100291.88;;;-10.91;68.52
45369;BME280;51342;55.250;37.668;2023-12-14T07:31:28;100292.09;;;-10.89;68.30
45369;BME280;51342;55.250;37.668;2023-12-14T07:34:00;100293.94;;;-10.88;68.41
45369;BME280;51342;55.250;37.668;2023-12-14T07:36:31;100295.28;;;-10.85;68.34
45369;BME280;51342;55.250;37.668;2023-12-14T07:39:03;100315.06;;;-10.81;68.21
45369;BME280;51342;55.250;37.668;2023-12-14T07:41:34;100302.78;;;-10.79;68.18
45369;BME280;51342;55.250;37.668;2023-12-14T07:44:06;100304.38;;;-10.74;68.15
45369;BME280;51342;55.250;37.668;2023-12-14T07:46:38;100298.94;;;-10.72;68.05
45369;BME280;51342;55.250;37.668;2023-12-14T07:49:12;100270.97;;;-10.75;68.10
45369;BME280;51342;55.250;37.668;2023-12-14T07:51:44;100275.75;;;-10.71;68.10
45369;BME280;51342;55.250;37.668;2023-12-14T07:54:15;100295.50;;;-10.66;68.21
45369;BME280;51342;55.250;37.668;2023-12-14T07:56:47;100301.44;;;-10.66;68.15
45369;BME280;51342;55.250;37.668;2023-12-14T07:59:18;100294.59;;;-10.67;68.14
45369;BME280;51342;55.250;37.668;2023-12-14T08:01:50;100303.47;;;-10.63;67.85
45369;BME280;51342;55.250;37.668;2023-12-14T08:04:21;100294.84;;;-10.71;67.97
45369;BME280;51342;55.250;37.668;2023-12-14T08:06:53;100285.50;;;-10.72;67.87
45369;BME280;51342;55.250;37.668;2023-12-14T08:09:24;100292.78;;;-10.74;68.00
45369;BME280;51342;55.250;37.668;2023-12-14T08:11:55;100280.97;;;-10.75;67.84
45369;BME280;51342;55.250;37.668;2023-12-14T08:14:27;100280.50;;;-10.72;68.02
45369;BME280;51342;55.250;37.668;2023-12-14T08:16:58;100283.94;;;-10.72;67.75
45369;BME280;51342;55.250;37.668;2023-12-14T08:19:30;100293.00;;;-10.66;67.95
45369;BME280;51342;55.250;37.668;2023-12-14T08:22:01;100273.00;;;-10.66;67.92
45369;BME280;51342;55.250;37.668;2023-12-14T08:24:33;100285.75;;;-10.59;67.85
45369;BME280;51342;55.250;37.668;2023-12-14T08:27:04;100268.47;;;-10.58;67.70
45369;BME280;51342;55.250;37.668;2023-12-14T08:29:36;100257.56;;;-10.58;67.65
45369;BME280;51342;55.250;37.668;2023-12-14T08:32:07;100263.69;;;-10.56;67.74
45369;BME280;51342;55.250;37.668;2023-12-14T08:34:40;100269.84;;;-10.54;67.61
45369;BME280;51342;55.250;37.668;2023-12-14T08:37:12;100268.00;;;-10.55;67.69
45369;BME280;51342;55.250;37.668;2023-12-14T08:39:43;100258.69;;;-10.56;67.58
45369;BME280;51342;55.250;37.668;2023-12-14T08:42:14;100269.38;;;-10.57;67.70
45369;BME280;51342;55.250;37.668;2023-12-14T08:44:46;100279.81;;;-10.49;67.65
45369;BME280;51342;55.250;37.668;2023-12-14T08:47:17;100277.75;;;-10.40;67.63
45369;BME280;51342;55.250;37.668;2023-12-14T08:49:49;100285.25;;;-10.34;67.51
45369;BME280;51342;55.250;37.668;2023-12-14T08:52:20;100286.81;;;-10.29;67.49
45369;BME280;51342;55.250;37.668;2023-12-14T08:54:52;100275.22;;;-10.29;67.54
45369;BME280;51342;55.250;37.668;2023-12-14T08:57:23;100295.41;;;-10.22;67.51
45369;BME280;51342;55.250;37.668;2023-12-14T08:59:55;100287.72;;;-10.23;67.54
45369;BME280;51342;55.250;37.668;2023-12-14T09:02:27;100280.91;;;-10.24;67.27
45369;BME280;51342;55.250;37.668;2023-12-14T09:04:58;100282.72;;;-10.23;67.55
45369;BME280;51342;55.250;37.668;2023-12-14T09:07:30;100287.94;;;-10.27;67.37
45369;BME280;51342;55.250;37.668;2023-12-14T09:10:01;100277.28;;;-10.32;67.36
45369;BME280;51342;55.250;37.668;2023-12-14T09:12:33;100286.09;;;-10.23;67.46
45369;BME280;51342;55.250;37.668;2023-12-14T09:15:05;100302.91;;;-10.22;67.40
45369;BME280;51342;55.250;37.668;2023-12-14T09:17:37;100302.91;;;-10.22;67.44
45369;BME280;51342;55.250;37.668;2023-12-14T09:20:09;100295.00;;;-10.25;67.34
45369;BME280;51342;55.250;37.668;2023-12-14T09:22:42;100293.84;;;-10.27;67.41
45369;BME280;51342;55.250;37.668;2023-12-14T09:25:13;100297.72;;;-10.29;67.37
45369;BME280;51342;55.250;37.668;2023-12-14T09:27:46;100289.09;;;-10.31;67.40
45369;BME280;51342;55.250;37.668;2023-12-14T09:30:18;100299.75;;;-10.21;67.38
45369;BME280;51342;55.250;37.668;2023-12-14T09:32:49;100300.16;;;-10.18;67.31
45369;BME280;51342;55.250;37.668;2023-12-14T09:35:21;100291.75;;;-10.12;67.32
45369;BME280;51342;55.250;37.668;2023-12-14T09:37:52;100286.50;;;-10.08;67.34
45369;BME280;51342;55.250;37.668;2023-12-14T09:40:24;100273.53;;;-10.11;67.33
45369;BME280;51342;55.250;37.668;2023-12-14T09:42:56;100284.25;;;-10.12;67.19
45369;BME280;51342;55.250;37.668;2023-12-14T09:45:29;100288.75;;;-10.10;67.41
45369;BME280;51342;55.250;37.668;2023-12-14T09:48:01;100284.22;;;-10.07;67.48
45369;BME280;51342;55.250;37.668;2023-12-14T09:50:33;100286.91;;;-10.00;67.33
45369;BME280;51342;55.250;37.668;2023-12-14T09:53:06;100273.97;;;-10.03;67.23
45369;BME280;51342;55.250;37.668;2023-12-14T09:55:38;100274.91;;;-10.08;67.10
45369;BME280;51342;55.250;37.668;2023-12-14T09:58:10;100282.44;;;-10.13;67.36
45369;BME280;51342;55.250;37.668;2023-12-14T10:00:42;100278.56;;;-10.17;67.36
45369;BME280;51342;55.250;37.668;2023-12-14T10:03:26;100274.94;;;-10.19;67.32
45369;BME280;51342;55.250;37.668;2023-12-14T10:05:59;100270.84;;;-10.19;67.38
45369;BME280;51342;55.250;37.668;2023-12-14T10:08:32;100272.22;;;-10.15;67.34
45369;BME280;51342;55.250;37.668;2023-12-14T10:11:15;100253.63;;;-10.34;67.05
45369;BME280;51342;55.250;37.668;2023-12-14T10:13:47;100256.13;;;-10.28;67.34
45369;BME280;51342;55.250;37.668;2023-12-14T10:16:32;100251.56;;;-10.25;67.19
45369;BME280;51342;55.250;37.668;2023-12-14T10:19:04;100252.25;;;-10.26;67.26
45369;BME280;51342;55.250;37.668;2023-12-14T10:21:35;100247.72;;;-10.29;67.14
45369;BME280;51342;55.250;37.668;2023-12-14T10:24:07;100248.38;;;-10.24;67.30
45369;BME280;51342;55.250;37.668;2023-12-14T10:26:38;100257.88;;;-10.22;67.15
45369;BME280;51342;55.250;37.668;2023-12-14T10:29:10;100237.00;;;-10.28;67.12
45369;BME280;51342;55.250;37.668;2023-12-14T10:31:43;100253.38;;;-10.24;67.25
45369;BME280;51342;55.250;37.668;2023-12-14T10:34:14;100248.41;;;-10.30;67.20
45369;BME280;51342;55.250;37.668;2023-12-14T10:36:46;100245.00;;;-10.30;67.01
45369;BME280;51342;55.250;37.668;2023-12-14T10:39:19;100241.13;;;-10.34;67.14
45369;BME280;51342;55.250;37.668;2023-12-14T10:41:52;100230.66;;;-10.31;67.33
45369;BME280;51342;55.250;37.668;2023-12-14T10:44:27;100227.28;;;-10.32;67.16
45369;BME280;51342;55.250;37.668;2023-12-14T10:47:00;100225.69;;;-10.37;67.11
45369;BME280;51342;55.250;37.668;2023-12-14T10:49:31;100223.41;;;-10.35;67.09
45369;BME280;51342;55.250;37.668;2023-12-14T10:52:06;100227.72;;;-10.34;67.13
45369;BME280;51342;55.250;37.668;2023-12-14T10:54:38;100215.00;;;-10.36;66.96
45369;BME280;51342;55.250;37.668;2023-12-14T10:57:10;100227.94;;;-10.33;67.04
45369;BME280;51342;55.250;37.668;2023-12-14T10:59:42;100224.50;;;-10.28;66.98
45369;BME280;51342;55.250;37.668;2023-12-14T11:02:14;100220.88;;;-10.24;67.01
45369;BME280;51342;55.250;37.668;2023-12-14T11:05:02;100228.53;;;-10.23;67.04
45369;BME280;51342;55.250;37.668;2023-12-14T11:07:54;100231.25;;;-10.21;66.84
45369;BME280;51342;55.250;37.668;2023-12-14T11:10:27;100226.03;;;-10.23;67.01
45369;BME280;51342;55.250;37.668;2023-12-14T11:13:04;100220.88;;;-10.24;66.86
45369;BME280;51342;55.250;37.668;2023-12-14T11:15:37;100192.94;;;-10.38;67.02
45369;BME280;51342;55.250;37.668;2023-12-14T11:20:57;100218.81;;;-10.32;67.15
45369;BME280;51342;55.250;37.668;2023-12-14T11:23:36;100202.91;;;-10.33;67.06
45369;BME280;51342;55.250;37.668;2023-12-14T11:26:10;100216.56;;;-10.31;67.02
45369;BME280;51342;55.250;37.668;2023-12-14T11:28:42;100225.66;;;-10.31;67.07
45369;BME280;51342;55.250;37.668;2023-12-14T11:31:14;100214.06;;;-10.31;67.11
45369;BME280;51342;55.250;37.668;2023-12-14T11:33:45;100220.41;;;-10.33;66.97
45369;BME280;51342;55.250;37.668;2023-12-14T11:36:18;100219.09;;;-10.36;67.14
45369;BME280;51342;55.250;37.668;2023-12-14T11:38:50;100215.44;;;-10.44;67.23
45369;BME280;51342;55.250;37.668;2023-12-14T11:41:22;100219.09;;;-10.42;67.12
45369;BME280;51342;55.250;37.668;2023-12-14T11:43:56;100222.06;;;-10.45;67.21
45369;BME280;51342;55.250;37.668;2023-12-14T11:46:29;100223.66;;;-10.45;67.03
45369;BME280;51342;55.250;37.668;2023-12-14T11:49:02;100232.72;;;-10.40;67.08
45369;BME280;51342;55.250;37.668;2023-12-14T11:51:34;100224.31;;;-10.40;67.10
45369;BME280;51342;55.250;37.668;2023-12-14T11:54:07;100219.09;;;-10.42;67.15
45369;BME280;51342;55.250;37.668;2023-12-14T11:56:39;100229.31;;;-10.40;67.21
45369;BME280;51342;55.250;37.668;2023-12-14T11:59:17;100228.91;;;-10.44;67.18
45369;BME280;51342;55.250;37.668;2023-12-14T12:02:00;100229.34;;;-10.46;67.14
45369;BME280;51342;55.250;37.668;2023-12-14T12:04:31;100227.31;;;-10.43;67.18
45369;BME280;51342;55.250;37.668;2023-12-14T12:07:04;100229.56;;;-10.45;67.27
45369;BME280;51342;55.250;37.668;2023-12-14T12:09:41;100235.03;;;-10.47;67.12
45369;BME280;51342;55.250;37.668;2023-12-14T12:12:13;100227.75;;;-10.51;67.09
45369;BME280;51342;55.250;37.668;2023-12-14T12:14:44;100229.56;;;-10.50;67.30
45369;BME280;51342;55.250;37.668;2023-12-14T12:17:16;100207.56;;;-10.58;67.23
45369;BME280;51342;55.250;37.668;2023-12-14T12:19:49;100222.97;;;-10.55;67.22
45369;BME280;51342;55.250;37.668;2023-12-14T12:22:21;100222.53;;;-10.53;67.32
45369;BME280;51342;55.250;37.668;2023-12-14T12:24:52;100222.31;;;-10.54;67.21
45369;BME280;51342;55.250;37.668;2023-12-14T12:27:24;100224.34;;;-10.52;67.36
45369;BME280;51342;55.250;37.668;2023-12-14T12:29:55;100225.72;;;-10.48;67.26
45369;BME280;51342;55.250;37.668;2023-12-14T12:32:27;100226.63;;;-10.53;67.42
45369;BME280;51342;55.250;37.668;2023-12-14T12:34:58;100222.53;;;-10.53;67.39
45369;BME280;51342;55.250;37.668;2023-12-14T12:37:30;100218.69;;;-10.56;67.45
45369;BME280;51342;55.250;37.668;2023-12-14T12:40:01;100219.13;;;-10.53;67.40
45369;BME280;51342;55.250;37.668;2023-12-14T12:42:33;100218.66;;;-10.51;67.37
45369;BME280;51342;55.250;37.668;2023-12-14T12:45:05;100219.81;;;-10.49;67.65
45369;BME280;51342;55.250;37.668;2023-12-14T12:47:37;100213.22;;;-10.54;67.45
45369;BME280;51342;55.250;37.668;2023-12-14T12:50:09;100217.75;;;-10.51;67.45
45369;BME280;51342;55.250;37.668;2023-12-14T12:52:40;100206.66;;;-10.59;67.45
45369;BME280;51342;55.250;37.668;2023-12-14T12:55:13;100223.22;;;-10.54;67.46
45369;BME280;51342;55.250;37.668;2023-12-14T12:57:45;100219.16;;;-10.59;67.50